sensor_id;sensor_type;location;lat;lon;timestamp;temperature;humidity
10492;DHT22;5293;51.464;-2.566;2022-12-11T00:02:00;0.80;99.90
10492;DHT22;5293;51.464;-2.566;2022-12-11T00:04:26;0.90;99.90
10492;DHT22;5293;51.464;-2.566;2022-12-11T00:06:52;0.90;99.90
10492;DHT22;5293;51.464;-2.566;2022-12-11T00:09:19;0.90;99.90
10492;DHT22;5293;51.464;-2.566;2022-12-11T00:11:45;0.90;99.90
10492;DHT22;5293;51.464;-2.566;2022-12-11T00:14:12;0.90;99.90
10492;DHT22;5293;51.464;-2.566;2022-12-11T00:16:38;0.90;99.90
10492;DHT22;5293;51.464;-2.566;2022-12-11T00:19:04;1.00;99.90
10492;DHT22;5293;51.464;-2.566;2022-12-11T00:21:30;1.00;99.90
10492;DHT22;5293;51.464;-2.566;2022-12-11T00:23:56;1.00;99.90
10492;DHT22;5293;51.464;-2.566;2022-12-11T00:26:21;1.00;99.90
10492;DHT22;5293;51.464;-2.566;2022-12-11T00:28:50;1.00;99.90
10492;DHT22;5293;51.464;-2.566;2022-12-11T00:31:19;0.90;99.90
10492;DHT22;5293;51.464;-2.566;2022-12-11T00:33:46;0.90;99.90
10492;DHT22;5293;51.464;-2.566;2022-12-11T00:36:23;1.00;99.90
10492;DHT22;5293;51.464;-2.566;2022-12-11T00:38:49;0.90;99.90
10492;DHT22;5293;51.464;-2.566;2022-12-11T00:41:15;0.90;99.90
10492;DHT22;5293;51.464;-2.566;2022-12-11T00:43:41;0.90;99.90
10492;DHT22;5293;51.464;-2.566;2022-12-11T00:46:07;0.90;99.90
10492;DHT22;5293;51.464;-2.566;2022-12-11T00:48:33;0.90;99.90
10492;DHT22;5293;51.464;-2.566;2022-12-11T00:50:59;0.90;99.90
10492;DHT22;5293;51.464;-2.566;2022-12-11T00:53:25;0.90;99.90
10492;DHT22;5293;51.464;-2.566;2022-12-11T00:55:50;0.90;99.90
10492;DHT22;5293;51.464;-2.566;2022-12-11T00:58:16;0.80;99.90
10492;DHT22;5293;51.464;-2.566;2022-12-11T01:00:43;1.00;99.90
10492;DHT22;5293;51.464;-2.566;2022-12-11T01:03:10;1.00;99.90
10492;DHT22;5293;51.464;-2.566;2022-12-11T01:05:37;0.90;99.90
10492;DHT22;5293;51.464;-2.566;2022-12-11T01:08:03;0.80;99.90
10492;DHT22;5293;51.464;-2.566;2022-12-11T01:10:30;0.80;99.90
10492;DHT22;5293;51.464;-2.566;2022-12-11T01:13:04;0.90;99.90
10492;DHT22;5293;51.464;-2.566;2022-12-11T01:15:38;0.80;99.90
10492;DHT22;5293;51.464;-2.566;2022-12-11T01:18:04;0.80;99.90
10492;DHT22;5293;51.464;-2.566;2022-12-11T01:20:30;0.80;99.90
10492;DHT22;5293;51.464;-2.566;2022-12-11T01:22:57;0.80;99.90
10492;DHT22;5293;51.464;-2.566;2022-12-11T01:25:24;0.90;99.90
10492;DHT22;5293;51.464;-2.566;2022-12-11T01:27:51;0.80;99.90
10492;DHT22;5293;51.464;-2.566;2022-12-11T01:30:17;0.80;99.90
10492;DHT22;5293;51.464;-2.566;2022-12-11T01:32:43;2.10;99.90
10492;DHT22;5293;51.464;-2.566;2022-12-11T01:35:10;0.90;99.90
10492;DHT22;5293;51.464;-2.566;2022-12-11T01:37:36;0.90;99.90
10492;DHT22;5293;51.464;-2.566;2022-12-11T01:40:03;0.90;99.90
10492;DHT22;5293;51.464;-2.566;2022-12-11T01:42:30;0.90;99.90
10492;DHT22;5293;51.464;-2.566;2022-12-11T01:45:28;0.90;99.90
10492;DHT22;5293;51.464;-2.566;2022-12-11T01:48:21;1.00;99.90
10492;DHT22;5293;51.464;-2.566;2022-12-11T01:50:54;1.00;99.90
10492;DHT22;5293;51.464;-2.566;2022-12-11T01:53:27;1.00;99.90
10492;DHT22;5293;51.464;-2.566;2022-12-11T01:55:55;0.90;99.90
10492;DHT22;5293;51.464;-2.566;2022-12-11T01:58:23;1.00;99.90
10492;DHT22;5293;51.464;-2.566;2022-12-11T02:00:52;1.00;99.90
10492;DHT22;5293;51.464;-2.566;2022-12-11T02:03:18;1.00;99.90
10492;DHT22;5293;51.464;-2.566;2022-12-11T02:05:44;1.00;99.90
10492;DHT22;5293;51.464;-2.566;2022-12-11T02:08:09;1.00;99.90
10492;DHT22;5293;51.464;-2.566;2022-12-11T02:10:53;1.00;99.90
10492;DHT22;5293;51.464;-2.566;2022-12-11T02:13:43;1.00;99.90
10492;DHT22;5293;51.464;-2.566;2022-12-11T02:16:25;1.00;99.90
10492;DHT22;5293;51.464;-2.566;2022-12-11T02:19:00;1.00;99.90
10492;DHT22;5293;51.464;-2.566;2022-12-11T02:21:34;1.00;99.90
10492;DHT22;5293;51.464;-2.566;2022-12-11T02:29:53;1.00;99.90
10492;DHT22;5293;51.464;-2.566;2022-12-11T02:32:26;1.10;99.90
10492;DHT22;5293;51.464;-2.566;2022-12-11T02:35:07;1.00;99.90
10492;DHT22;5293;51.464;-2.566;2022-12-11T02:37:35;1.00;99.90
10492;DHT22;5293;51.464;-2.566;2022-12-11T02:40:04;1.00;99.90
10492;DHT22;5293;51.464;-2.566;2022-12-11T02:42:32;1.00;99.90
10492;DHT22;5293;51.464;-2.566;2022-12-11T02:44:59;1.00;99.90
10492;DHT22;5293;51.464;-2.566;2022-12-11T02:47:28;0.20;99.90
10492;DHT22;5293;51.464;-2.566;2022-12-11T02:49:55;1.10;99.90
10492;DHT22;5293;51.464;-2.566;2022-12-11T02:52:22;1.00;99.90
10492;DHT22;5293;51.464;-2.566;2022-12-11T02:54:51;1.10;99.90
10492;DHT22;5293;51.464;-2.566;2022-12-11T02:57:26;1.10;99.90
10492;DHT22;5293;51.464;-2.566;2022-12-11T02:59:55;1.10;99.90
10492;DHT22;5293;51.464;-2.566;2022-12-11T03:02:20;1.20;99.90
10492;DHT22;5293;51.464;-2.566;2022-12-11T03:04:46;1.20;99.90
10492;DHT22;5293;51.464;-2.566;2022-12-11T03:07:20;1.30;99.90
10492;DHT22;5293;51.464;-2.566;2022-12-11T03:09:48;1.20;99.90
10492;DHT22;5293;51.464;-2.566;2022-12-11T03:12:18;1.20;99.90
10492;DHT22;5293;51.464;-2.566;2022-12-11T03:14:45;1.30;99.90
10492;DHT22;5293;51.464;-2.566;2022-12-11T03:17:53;1.30;99.90
10492;DHT22;5293;51.464;-2.566;2022-12-11T03:25:55;1.40;99.90
10492;DHT22;5293;51.464;-2.566;2022-12-11T03:30:57;1.40;99.90
10492;DHT22;5293;51.464;-2.566;2022-12-11T03:33:46;1.30;99.90
10492;DHT22;5293;51.464;-2.566;2022-12-11T03:36:18;1.30;99.90
10492;DHT22;5293;51.464;-2.566;2022-12-11T03:38:51;1.40;99.90
10492;DHT22;5293;51.464;-2.566;2022-12-11T03:41:19;1.40;99.90
10492;DHT22;5293;51.464;-2.566;2022-12-11T03:43:48;1.40;99.90
10492;DHT22;5293;51.464;-2.566;2022-12-11T03:46:15;1.30;99.90
10492;DHT22;5293;51.464;-2.566;2022-12-11T03:48:44;1.30;99.90
10492;DHT22;5293;51.464;-2.566;2022-12-11T03:51:11;1.40;99.90
10492;DHT22;5293;51.464;-2.566;2022-12-11T03:53:38;1.20;99.90
10492;DHT22;5293;51.464;-2.566;2022-12-11T03:56:05;1.30;99.90
10492;DHT22;5293;51.464;-2.566;2022-12-11T03:58:31;1.30;99.90
10492;DHT22;5293;51.464;-2.566;2022-12-11T04:00:57;1.30;99.90
10492;DHT22;5293;51.464;-2.566;2022-12-11T04:03:23;1.30;99.90
10492;DHT22;5293;51.464;-2.566;2022-12-11T04:05:51;1.40;99.90
10492;DHT22;5293;51.464;-2.566;2022-12-11T04:08:18;1.40;99.90
10492;DHT22;5293;51.464;-2.566;2022-12-11T04:10:48;1.30;99.90
10492;DHT22;5293;51.464;-2.566;2022-12-11T04:13:33;1.30;99.90
10492;DHT22;5293;51.464;-2.566;2022-12-11T04:15:59;1.20;99.90
10492;DHT22;5293;51.464;-2.566;2022-12-11T04:18:25;1.20;99.90
10492;DHT22;5293;51.464;-2.566;2022-12-11T04:21:09;1.20;99.90
10492;DHT22;5293;51.464;-2.566;2022-12-11T04:23:53;1.20;99.90
10492;DHT22;5293;51.464;-2.566;2022-12-11T04:26:40;1.30;99.90
10492;DHT22;5293;51.464;-2.566;2022-12-11T04:29:06;1.20;99.90
10492;DHT22;5293;51.464;-2.566;2022-12-11T04:31:32;1.20;99.90
10492;DHT22;5293;51.464;-2.566;2022-12-11T04:33:57;1.20;99.90
10492;DHT22;5293;51.464;-2.566;2022-12-11T04:36:23;1.30;99.90
10492;DHT22;5293;51.464;-2.566;2022-12-11T04:38:48;1.20;99.90
10492;DHT22;5293;51.464;-2.566;2022-12-11T04:41:14;1.30;99.90
10492;DHT22;5293;51.464;-2.566;2022-12-11T04:43:41;1.30;99.90
10492;DHT22;5293;51.464;-2.566;2022-12-11T04:46:19;1.40;99.90
10492;DHT22;5293;51.464;-2.566;2022-12-11T04:48:46;1.40;99.90
10492;DHT22;5293;51.464;-2.566;2022-12-11T04:51:12;1.40;99.90
10492;DHT22;5293;51.464;-2.566;2022-12-11T04:53:38;1.40;99.90
10492;DHT22;5293;51.464;-2.566;2022-12-11T04:56:06;1.30;99.90
10492;DHT22;5293;51.464;-2.566;2022-12-11T04:58:33;1.30;99.90
10492;DHT22;5293;51.464;-2.566;2022-12-11T05:01:05;1.30;99.90
10492;DHT22;5293;51.464;-2.566;2022-12-11T05:03:31;1.30;99.90
10492;DHT22;5293;51.464;-2.566;2022-12-11T05:05:56;1.40;99.90
10492;DHT22;5293;51.464;-2.566;2022-12-11T05:08:22;1.40;99.90
10492;DHT22;5293;51.464;-2.566;2022-12-11T05:10:59;1.50;99.90
10492;DHT22;5293;51.464;-2.566;2022-12-11T05:13:26;1.50;99.90
10492;DHT22;5293;51.464;-2.566;2022-12-11T05:15:51;1.60;99.90
10492;DHT22;5293;51.464;-2.566;2022-12-11T05:18:18;1.60;99.90
10492;DHT22;5293;51.464;-2.566;2022-12-11T05:20:44;1.50;99.90
10492;DHT22;5293;51.464;-2.566;2022-12-11T05:23:09;1.60;99.90
10492;DHT22;5293;51.464;-2.566;2022-12-11T05:25:35;1.50;99.90
10492;DHT22;5293;51.464;-2.566;2022-12-11T05:28:00;1.50;99.90
10492;DHT22;5293;51.464;-2.566;2022-12-11T05:30:26;1.50;99.90
10492;DHT22;5293;51.464;-2.566;2022-12-11T05:32:52;1.50;99.90
10492;DHT22;5293;51.464;-2.566;2022-12-11T05:35:17;1.40;99.90
10492;DHT22;5293;51.464;-2.566;2022-12-11T05:37:43;1.40;99.90
10492;DHT22;5293;51.464;-2.566;2022-12-11T05:40:09;1.50;99.90
10492;DHT22;5293;51.464;-2.566;2022-12-11T05:42:37;1.40;99.90
10492;DHT22;5293;51.464;-2.566;2022-12-11T05:45:03;1.50;99.90
10492;DHT22;5293;51.464;-2.566;2022-12-11T05:47:30;1.50;99.90
10492;DHT22;5293;51.464;-2.566;2022-12-11T05:49:55;1.40;99.90
10492;DHT22;5293;51.464;-2.566;2022-12-11T05:52:21;1.50;99.90
10492;DHT22;5293;51.464;-2.566;2022-12-11T05:54:48;1.60;99.90
10492;DHT22;5293;51.464;-2.566;2022-12-11T05:57:15;1.50;99.90
10492;DHT22;5293;51.464;-2.566;2022-12-11T05:59:40;1.50;99.90
10492;DHT22;5293;51.464;-2.566;2022-12-11T06:02:06;1.50;99.90
10492;DHT22;5293;51.464;-2.566;2022-12-11T06:04:32;1.50;99.90
10492;DHT22;5293;51.464;-2.566;2022-12-11T06:06:58;1.50;99.90
10492;DHT22;5293;51.464;-2.566;2022-12-11T06:09:23;1.50;99.90
10492;DHT22;5293;51.464;-2.566;2022-12-11T06:11:49;1.50;99.90
10492;DHT22;5293;51.464;-2.566;2022-12-11T06:14:15;1.50;99.90
10492;DHT22;5293;51.464;-2.566;2022-12-11T06:16:40;1.50;99.90
10492;DHT22;5293;51.464;-2.566;2022-12-11T06:19:06;1.40;99.90
10492;DHT22;5293;51.464;-2.566;2022-12-11T06:21:37;1.40;99.90
10492;DHT22;5293;51.464;-2.566;2022-12-11T06:24:03;1.40;99.90
10492;DHT22;5293;51.464;-2.566;2022-12-11T06:26:30;1.40;99.90
10492;DHT22;5293;51.464;-2.566;2022-12-11T06:28:56;1.40;99.90
10492;DHT22;5293;51.464;-2.566;2022-12-11T06:31:22;1.50;99.90
10492;DHT22;5293;51.464;-2.566;2022-12-11T06:33:48;1.40;99.90
10492;DHT22;5293;51.464;-2.566;2022-12-11T06:36:18;1.30;99.90
10492;DHT22;5293;51.464;-2.566;2022-12-11T06:38:44;1.30;99.90
10492;DHT22;5293;51.464;-2.566;2022-12-11T06:41:11;1.30;99.90
10492;DHT22;5293;51.464;-2.566;2022-12-11T06:43:38;1.30;99.90
10492;DHT22;5293;51.464;-2.566;2022-12-11T06:46:05;1.30;99.90
10492;DHT22;5293;51.464;-2.566;2022-12-11T06:48:32;1.40;99.90
10492;DHT22;5293;51.464;-2.566;2022-12-11T06:50:58;1.40;99.90
10492;DHT22;5293;51.464;-2.566;2022-12-11T06:53:23;1.40;99.90
10492;DHT22;5293;51.464;-2.566;2022-12-11T06:55:49;1.30;99.90
10492;DHT22;5293;51.464;-2.566;2022-12-11T06:58:15;1.40;99.90
10492;DHT22;5293;51.464;-2.566;2022-12-11T07:00:41;1.40;99.90
10492;DHT22;5293;51.464;-2.566;2022-12-11T07:03:06;1.40;99.90
10492;DHT22;5293;51.464;-2.566;2022-12-11T07:05:32;1.40;99.90
10492;DHT22;5293;51.464;-2.566;2022-12-11T07:07:58;1.40;99.90
10492;DHT22;5293;51.464;-2.566;2022-12-11T07:10:24;1.50;99.90
10492;DHT22;5293;51.464;-2.566;2022-12-11T07:12:52;1.50;99.90
10492;DHT22;5293;51.464;-2.566;2022-12-11T07:15:18;1.40;99.90
10492;DHT22;5293;51.464;-2.566;2022-12-11T07:17:44;1.50;99.90
10492;DHT22;5293;51.464;-2.566;2022-12-11T07:20:10;1.50;99.90
10492;DHT22;5293;51.464;-2.566;2022-12-11T07:22:36;1.50;99.90
10492;DHT22;5293;51.464;-2.566;2022-12-11T07:25:02;1.50;99.90
10492;DHT22;5293;51.464;-2.566;2022-12-11T07:27:28;1.50;99.90
10492;DHT22;5293;51.464;-2.566;2022-12-11T07:29:54;1.50;99.90
10492;DHT22;5293;51.464;-2.566;2022-12-11T07:32:20;1.50;99.90
10492;DHT22;5293;51.464;-2.566;2022-12-11T07:34:47;1.60;99.90
10492;DHT22;5293;51.464;-2.566;2022-12-11T07:37:13;1.60;99.90
10492;DHT22;5293;51.464;-2.566;2022-12-11T07:39:39;1.60;99.90
10492;DHT22;5293;51.464;-2.566;2022-12-11T07:42:05;1.60;99.90
10492;DHT22;5293;51.464;-2.566;2022-12-11T07:44:30;1.60;99.90
10492;DHT22;5293;51.464;-2.566;2022-12-11T07:46:56;1.70;99.90
10492;DHT22;5293;51.464;-2.566;2022-12-11T07:49:23;1.60;99.90
10492;DHT22;5293;51.464;-2.566;2022-12-11T07:51:49;1.60;99.90
10492;DHT22;5293;51.464;-2.566;2022-12-11T07:54:15;1.60;99.90
10492;DHT22;5293;51.464;-2.566;2022-12-11T07:56:44;1.70;99.90
10492;DHT22;5293;51.464;-2.566;2022-12-11T07:59:11;1.70;99.90
10492;DHT22;5293;51.464;-2.566;2022-12-11T08:01:37;1.70;99.90
10492;DHT22;5293;51.464;-2.566;2022-12-11T08:04:05;1.70;99.90
10492;DHT22;5293;51.464;-2.566;2022-12-11T08:06:33;1.60;99.90
10492;DHT22;5293;51.464;-2.566;2022-12-11T08:09:00;1.70;99.90
10492;DHT22;5293;51.464;-2.566;2022-12-11T08:11:27;1.80;99.90
10492;DHT22;5293;51.464;-2.566;2022-12-11T08:13:53;1.70;99.90
10492;DHT22;5293;51.464;-2.566;2022-12-11T08:16:19;1.70;99.90
10492;DHT22;5293;51.464;-2.566;2022-12-11T08:18:46;1.80;99.90
10492;DHT22;5293;51.464;-2.566;2022-12-11T08:21:17;1.90;99.90
10492;DHT22;5293;51.464;-2.566;2022-12-11T08:23:43;1.70;99.90
10492;DHT22;5293;51.464;-2.566;2022-12-11T08:26:15;1.80;99.90
10492;DHT22;5293;51.464;-2.566;2022-12-11T08:28:41;1.80;99.90
10492;DHT22;5293;51.464;-2.566;2022-12-11T08:31:08;1.80;99.90
10492;DHT22;5293;51.464;-2.566;2022-12-11T08:33:35;1.80;99.90
10492;DHT22;5293;51.464;-2.566;2022-12-11T08:36:09;1.80;99.90
10492;DHT22;5293;51.464;-2.566;2022-12-11T08:38:35;1.80;99.90
10492;DHT22;5293;51.464;-2.566;2022-12-11T08:43:41;1.80;99.90
10492;DHT22;5293;51.464;-2.566;2022-12-11T08:46:07;1.70;99.90
10492;DHT22;5293;51.464;-2.566;2022-12-11T08:48:34;1.80;99.90
10492;DHT22;5293;51.464;-2.566;2022-12-11T08:51:02;1.70;99.90
10492;DHT22;5293;51.464;-2.566;2022-12-11T08:53:29;1.70;99.90
10492;DHT22;5293;51.464;-2.566;2022-12-11T08:56:07;1.70;99.90
10492;DHT22;5293;51.464;-2.566;2022-12-11T08:58:33;1.80;99.90
10492;DHT22;5293;51.464;-2.566;2022-12-11T09:00:58;1.80;99.90
10492;DHT22;5293;51.464;-2.566;2022-12-11T09:03:24;1.80;99.90
10492;DHT22;5293;51.464;-2.566;2022-12-11T09:05:50;1.90;99.90
10492;DHT22;5293;51.464;-2.566;2022-12-11T09:08:16;1.00;99.90
10492;DHT22;5293;51.464;-2.566;2022-12-11T09:10:42;2.10;99.90
10492;DHT22;5293;51.464;-2.566;2022-12-11T09:13:08;2.00;99.90
10492;DHT22;5293;51.464;-2.566;2022-12-11T09:15:33;2.10;99.90
10492;DHT22;5293;51.464;-2.566;2022-12-11T09:18:00;2.10;99.90
10492;DHT22;5293;51.464;-2.566;2022-12-11T09:20:26;2.10;99.90
10492;DHT22;5293;51.464;-2.566;2022-12-11T09:22:51;2.00;99.90
10492;DHT22;5293;51.464;-2.566;2022-12-11T09:25:17;2.10;99.90
10492;DHT22;5293;51.464;-2.566;2022-12-11T09:27:42;2.00;99.90
10492;DHT22;5293;51.464;-2.566;2022-12-11T09:30:08;2.10;99.90
10492;DHT22;5293;51.464;-2.566;2022-12-11T09:32:34;2.00;99.90
10492;DHT22;5293;51.464;-2.566;2022-12-11T09:34:59;2.10;99.90
10492;DHT22;5293;51.464;-2.566;2022-12-11T09:37:25;2.10;99.90
10492;DHT22;5293;51.464;-2.566;2022-12-11T09:39:51;2.10;99.90
10492;DHT22;5293;51.464;-2.566;2022-12-11T09:45:12;2.10;99.90
10492;DHT22;5293;51.464;-2.566;2022-12-11T09:47:42;2.20;99.90
10492;DHT22;5293;51.464;-2.566;2022-12-11T09:52:38;2.10;99.90
10492;DHT22;5293;51.464;-2.566;2022-12-11T09:55:15;2.10;99.90
10492;DHT22;5293;51.464;-2.566;2022-12-11T09:58:02;2.00;99.90
10492;DHT22;5293;51.464;-2.566;2022-12-11T10:00:52;2.10;99.90
10492;DHT22;5293;51.464;-2.566;2022-12-11T10:08:59;1.90;99.90
10492;DHT22;5293;51.464;-2.566;2022-12-11T10:14:48;1.80;99.90
10492;DHT22;5293;51.464;-2.566;2022-12-11T10:17:53;2.00;99.90
10492;DHT22;5293;51.464;-2.566;2022-12-11T10:20:23;2.00;99.90
10492;DHT22;5293;51.464;-2.566;2022-12-11T10:22:51;1.90;99.90
10492;DHT22;5293;51.464;-2.566;2022-12-11T10:25:28;2.00;99.90
10492;DHT22;5293;51.464;-2.566;2022-12-11T10:27:54;2.10;99.90
10492;DHT22;5293;51.464;-2.566;2022-12-11T10:30:35;2.10;99.90
10492;DHT22;5293;51.464;-2.566;2022-12-11T10:35:51;2.10;99.90
10492;DHT22;5293;51.464;-2.566;2022-12-11T10:38:27;2.10;99.90
10492;DHT22;5293;51.464;-2.566;2022-12-11T10:40:59;2.10;99.90
10492;DHT22;5293;51.464;-2.566;2022-12-11T10:43:37;2.20;99.90
10492;DHT22;5293;51.464;-2.566;2022-12-11T10:46:05;2.10;99.90
10492;DHT22;5293;51.464;-2.566;2022-12-11T10:48:31;2.20;99.90
10492;DHT22;5293;51.464;-2.566;2022-12-11T10:51:03;2.30;99.90
10492;DHT22;5293;51.464;-2.566;2022-12-11T10:53:31;2.40;99.90
10492;DHT22;5293;51.464;-2.566;2022-12-11T10:55:58;2.40;99.90
10492;DHT22;5293;51.464;-2.566;2022-12-11T10:58:27;2.40;99.90
10492;DHT22;5293;51.464;-2.566;2022-12-11T11:01:01;2.40;99.90
10492;DHT22;5293;51.464;-2.566;2022-12-11T11:03:28;2.50;99.90
10492;DHT22;5293;51.464;-2.566;2022-12-11T11:06:16;2.50;99.90
10492;DHT22;5293;51.464;-2.566;2022-12-11T11:08:47;2.60;99.90
10492;DHT22;5293;51.464;-2.566;2022-12-11T11:13:45;2.70;99.90
10492;DHT22;5293;51.464;-2.566;2022-12-11T11:16:16;2.70;99.90
10492;DHT22;5293;51.464;-2.566;2022-12-11T11:18:53;2.90;99.90
10492;DHT22;5293;51.464;-2.566;2022-12-11T11:21:23;3.00;99.90
10492;DHT22;5293;51.464;-2.566;2022-12-11T11:23:50;3.00;99.90
10492;DHT22;5293;51.464;-2.566;2022-12-11T11:26:17;3.10;99.90
10492;DHT22;5293;51.464;-2.566;2022-12-11T11:28:53;3.10;99.90
10492;DHT22;5293;51.464;-2.566;2022-12-11T11:31:21;3.20;99.90
10492;DHT22;5293;51.464;-2.566;2022-12-11T11:33:55;3.20;99.90
10492;DHT22;5293;51.464;-2.566;2022-12-11T11:36:29;3.20;99.90
10492;DHT22;5293;51.464;-2.566;2022-12-11T11:39:12;3.30;99.90
10492;DHT22;5293;51.464;-2.566;2022-12-11T11:44:23;3.10;99.90
10492;DHT22;5293;51.464;-2.566;2022-12-11T11:55:17;3.00;99.90
10492;DHT22;5293;51.464;-2.566;2022-12-11T12:00:25;3.00;99.90
10492;DHT22;5293;51.464;-2.566;2022-12-11T12:02:57;2.80;99.90
10492;DHT22;5293;51.464;-2.566;2022-12-11T12:08:11;2.90;99.90
10492;DHT22;5293;51.464;-2.566;2022-12-11T12:14:02;2.70;99.90
10492;DHT22;5293;51.464;-2.566;2022-12-11T12:31:27;2.70;99.90
10492;DHT22;5293;51.464;-2.566;2022-12-11T12:44:36;2.70;99.90
10492;DHT22;5293;51.464;-2.566;2022-12-11T12:47:12;2.80;99.90
10492;DHT22;5293;51.464;-2.566;2022-12-11T12:49:40;2.70;99.90
10492;DHT22;5293;51.464;-2.566;2022-12-11T12:54:56;2.90;99.90
10492;DHT22;5293;51.464;-2.566;2022-12-11T12:57:51;2.90;99.90
10492;DHT22;5293;51.464;-2.566;2022-12-11T13:00:48;2.80;99.90
10492;DHT22;5293;51.464;-2.566;2022-12-11T13:03:20;2.80;99.90
10492;DHT22;5293;51.464;-2.566;2022-12-11T13:06:02;2.70;99.90
10492;DHT22;5293;51.464;-2.566;2022-12-11T13:08:36;2.90;99.90
10492;DHT22;5293;51.464;-2.566;2022-12-11T13:11:06;2.80;99.90
10492;DHT22;5293;51.464;-2.566;2022-12-11T13:14:05;2.90;99.90
10492;DHT22;5293;51.464;-2.566;2022-12-11T13:16:37;2.80;99.90
10492;DHT22;5293;51.464;-2.566;2022-12-11T13:19:36;2.80;99.90
10492;DHT22;5293;51.464;-2.566;2022-12-11T13:25:21;2.70;99.90
10492;DHT22;5293;51.464;-2.566;2022-12-11T13:27:47;2.70;99.90
10492;DHT22;5293;51.464;-2.566;2022-12-11T13:35:19;2.80;99.90
10492;DHT22;5293;51.464;-2.566;2022-12-11T13:37:45;2.80;99.90
10492;DHT22;5293;51.464;-2.566;2022-12-11T13:40:15;2.80;99.90
10492;DHT22;5293;51.464;-2.566;2022-12-11T13:42:50;2.80;99.90
10492;DHT22;5293;51.464;-2.566;2022-12-11T13:45:20;2.70;99.90
10492;DHT22;5293;51.464;-2.566;2022-12-11T13:47:47;2.70;99.90
10492;DHT22;5293;51.464;-2.566;2022-12-11T13:50:28;2.80;99.90
10492;DHT22;5293;51.464;-2.566;2022-12-11T13:52:56;2.80;99.90
10492;DHT22;5293;51.464;-2.566;2022-12-11T13:55:31;2.80;99.90
10492;DHT22;5293;51.464;-2.566;2022-12-11T13:57:57;2.80;99.90
10492;DHT22;5293;51.464;-2.566;2022-12-11T14:00:28;2.80;99.90
10492;DHT22;5293;51.464;-2.566;2022-12-11T14:02:56;2.80;99.90
10492;DHT22;5293;51.464;-2.566;2022-12-11T14:05:23;2.70;99.90
10492;DHT22;5293;51.464;-2.566;2022-12-11T14:07:55;2.50;99.90
10492;DHT22;5293;51.464;-2.566;2022-12-11T14:10:23;2.50;99.90
10492;DHT22;5293;51.464;-2.566;2022-12-11T14:12:54;2.60;99.90
10492;DHT22;5293;51.464;-2.566;2022-12-11T14:15:21;2.70;99.90
10492;DHT22;5293;51.464;-2.566;2022-12-11T14:17:47;2.70;99.90
10492;DHT22;5293;51.464;-2.566;2022-12-11T14:20:19;2.60;99.90
10492;DHT22;5293;51.464;-2.566;2022-12-11T14:22:48;2.80;99.90
10492;DHT22;5293;51.464;-2.566;2022-12-11T14:25:25;2.80;99.90
10492;DHT22;5293;51.464;-2.566;2022-12-11T14:27:53;2.80;99.90
10492;DHT22;5293;51.464;-2.566;2022-12-11T14:30:25;2.80;99.90
10492;DHT22;5293;51.464;-2.566;2022-12-11T14:32:55;2.80;99.90
10492;DHT22;5293;51.464;-2.566;2022-12-11T14:37:53;2.80;99.90
10492;DHT22;5293;51.464;-2.566;2022-12-11T14:40:23;2.70;99.90
10492;DHT22;5293;51.464;-2.566;2022-12-11T14:42:53;2.70;99.90
10492;DHT22;5293;51.464;-2.566;2022-12-11T14:45:32;2.70;99.90
10492;DHT22;5293;51.464;-2.566;2022-12-11T14:47:59;2.70;99.90
10492;DHT22;5293;51.464;-2.566;2022-12-11T14:50:35;2.70;99.90
10492;DHT22;5293;51.464;-2.566;2022-12-11T14:53:07;2.80;99.90
10492;DHT22;5293;51.464;-2.566;2022-12-11T14:55:37;2.80;99.90
10492;DHT22;5293;51.464;-2.566;2022-12-11T14:58:14;2.70;99.90
10492;DHT22;5293;51.464;-2.566;2022-12-11T15:00:41;2.60;99.90
10492;DHT22;5293;51.464;-2.566;2022-12-11T15:03:22;2.80;99.90
10492;DHT22;5293;51.464;-2.566;2022-12-11T15:05:50;2.70;99.90
10492;DHT22;5293;51.464;-2.566;2022-12-11T15:11:06;2.80;99.90
10492;DHT22;5293;51.464;-2.566;2022-12-11T15:13:35;2.60;99.90
10492;DHT22;5293;51.464;-2.566;2022-12-11T15:16:02;2.60;99.90
10492;DHT22;5293;51.464;-2.566;2022-12-11T15:18:31;2.70;99.90
10492;DHT22;5293;51.464;-2.566;2022-12-11T15:21:06;2.70;99.90
10492;DHT22;5293;51.464;-2.566;2022-12-11T15:23:52;2.80;99.90
10492;DHT22;5293;51.464;-2.566;2022-12-11T15:26:30;2.70;99.90
10492;DHT22;5293;51.464;-2.566;2022-12-11T15:29:01;2.80;99.90
10492;DHT22;5293;51.464;-2.566;2022-12-11T15:31:30;2.90;99.90
10492;DHT22;5293;51.464;-2.566;2022-12-11T15:33:57;2.80;99.90
10492;DHT22;5293;51.464;-2.566;2022-12-11T15:38:54;2.80;99.90
10492;DHT22;5293;51.464;-2.566;2022-12-11T15:41:20;2.80;99.90
10492;DHT22;5293;51.464;-2.566;2022-12-11T15:43:50;2.80;99.90
10492;DHT22;5293;51.464;-2.566;2022-12-11T15:46:16;2.70;99.90
10492;DHT22;5293;51.464;-2.566;2022-12-11T15:48:42;2.70;99.90
10492;DHT22;5293;51.464;-2.566;2022-12-11T15:51:09;2.60;99.90
10492;DHT22;5293;51.464;-2.566;2022-12-11T15:53:35;2.50;99.90
10492;DHT22;5293;51.464;-2.566;2022-12-11T15:56:01;2.40;99.90
10492;DHT22;5293;51.464;-2.566;2022-12-11T15:58:27;2.40;99.90
10492;DHT22;5293;51.464;-2.566;2022-12-11T16:00:53;2.50;99.90
10492;DHT22;5293;51.464;-2.566;2022-12-11T16:03:20;2.50;99.90
10492;DHT22;5293;51.464;-2.566;2022-12-11T16:05:48;2.60;99.90
10492;DHT22;5293;51.464;-2.566;2022-12-11T16:08:16;2.60;99.90
10492;DHT22;5293;51.464;-2.566;2022-12-11T16:10:43;2.60;99.90
10492;DHT22;5293;51.464;-2.566;2022-12-11T16:13:10;2.70;99.90
10492;DHT22;5293;51.464;-2.566;2022-12-11T16:15:37;2.60;99.90
10492;DHT22;5293;51.464;-2.566;2022-12-11T16:18:06;2.50;99.90
10492;DHT22;5293;51.464;-2.566;2022-12-11T16:20:33;2.40;99.90
10492;DHT22;5293;51.464;-2.566;2022-12-11T16:23:00;2.30;99.90
10492;DHT22;5293;51.464;-2.566;2022-12-11T16:25:26;2.30;99.90
10492;DHT22;5293;51.464;-2.566;2022-12-11T16:27:55;2.30;99.90
10492;DHT22;5293;51.464;-2.566;2022-12-11T16:30:22;2.40;99.90
10492;DHT22;5293;51.464;-2.566;2022-12-11T16:32:48;2.30;99.90
10492;DHT22;5293;51.464;-2.566;2022-12-11T16:35:14;2.20;99.90
10492;DHT22;5293;51.464;-2.566;2022-12-11T16:37:39;2.20;99.90
10492;DHT22;5293;51.464;-2.566;2022-12-11T16:40:05;2.20;99.90
10492;DHT22;5293;51.464;-2.566;2022-12-11T16:42:31;2.20;99.90
10492;DHT22;5293;51.464;-2.566;2022-12-11T16:45:04;2.30;99.90
10492;DHT22;5293;51.464;-2.566;2022-12-11T16:47:30;2.30;99.90
10492;DHT22;5293;51.464;-2.566;2022-12-11T16:49:57;2.30;99.90
10492;DHT22;5293;51.464;-2.566;2022-12-11T16:52:23;2.30;99.90
10492;DHT22;5293;51.464;-2.566;2022-12-11T16:54:49;2.40;99.90
10492;DHT22;5293;51.464;-2.566;2022-12-11T16:57:14;2.30;99.90
10492;DHT22;5293;51.464;-2.566;2022-12-11T16:59:40;2.30;99.90
10492;DHT22;5293;51.464;-2.566;2022-12-11T17:02:09;2.30;99.90
10492;DHT22;5293;51.464;-2.566;2022-12-11T17:04:36;2.30;99.90
10492;DHT22;5293;51.464;-2.566;2022-12-11T17:07:03;2.40;99.90
10492;DHT22;5293;51.464;-2.566;2022-12-11T17:09:29;2.50;99.90
10492;DHT22;5293;51.464;-2.566;2022-12-11T17:11:55;2.50;99.90
10492;DHT22;5293;51.464;-2.566;2022-12-11T17:14:21;2.40;99.90
10492;DHT22;5293;51.464;-2.566;2022-12-11T17:16:46;2.40;99.90
10492;DHT22;5293;51.464;-2.566;2022-12-11T17:19:13;2.30;99.90
10492;DHT22;5293;51.464;-2.566;2022-12-11T17:21:38;2.40;99.90
10492;DHT22;5293;51.464;-2.566;2022-12-11T17:24:05;2.40;99.90
10492;DHT22;5293;51.464;-2.566;2022-12-11T17:26:31;2.50;99.90
10492;DHT22;5293;51.464;-2.566;2022-12-11T17:28:58;2.40;99.90
10492;DHT22;5293;51.464;-2.566;2022-12-11T17:31:25;2.30;99.90
10492;DHT22;5293;51.464;-2.566;2022-12-11T17:33:51;2.50;99.90
10492;DHT22;5293;51.464;-2.566;2022-12-11T17:36:20;2.50;99.90
10492;DHT22;5293;51.464;-2.566;2022-12-11T17:38:46;2.50;99.90